createdAt,value
2023-04-15T00:00:12.883Z,100245.75
2023-04-15T00:15:15.585Z,100241.09
2023-04-15T00:30:17.454Z,100244.81
2023-04-15T00:45:19.420Z,100252.19
2023-04-15T01:00:21.391Z,100254.59
2023-04-15T01:15:23.762Z,100256.31
2023-04-15T01:30:27.135Z,100252.75
2023-04-15T01:45:28.966Z,100275.25
2023-04-15T02:00:32.757Z,100294.19
2023-04-15T02:15:34.966Z,100320.16
2023-04-15T02:30:36.888Z,100329.56
2023-04-15T02:45:38.878Z,100338.03
2023-04-15T03:00:40.684Z,100355.50
2023-04-15T03:15:43.010Z,100372.59
2023-04-15T03:30:44.816Z,100382.56
2023-04-15T03:45:46.674Z,100396.69
2023-04-15T04:00:48.478Z,100415.88
2023-04-15T04:15:51.090Z,100412.22
2023-04-15T04:30:53.033Z,100425.81
2023-04-15T04:45:54.926Z,100456.91
2023-04-15T05:00:56.914Z,100453.66
2023-04-15T05:15:59.105Z,100455.88
2023-04-15T05:31:01.047Z,100473.44
2023-04-15T05:46:02.882Z,100473.19
2023-04-15T06:01:05.222Z,100482.63
2023-04-15T06:16:08.565Z,100497.38
2023-04-15T06:31:11.132Z,100522.47
2023-04-15T06:46:13.118Z,100525.78
2023-04-15T07:01:14.952Z,100542.44
2023-04-15T07:16:16.973Z,100542.81
2023-04-15T07:31:18.946Z,100563.13
2023-04-15T07:46:20.935Z,100567.44
2023-04-15T08:01:23.094Z,100567.59
2023-04-15T08:16:28.188Z,100553.19
2023-04-15T08:31:30.855Z,100574.25
2023-04-15T08:46:35.905Z,100612.44
2023-04-15T09:01:38.650Z,100605.91
2023-04-15T09:17:03.977Z,100612.66
2023-04-15T09:32:16.164Z,100609.19
2023-04-15T09:47:31.758Z,100623.38
2023-04-15T10:02:34.039Z,100620.59
2023-04-15T10:17:37.750Z,100641.81
2023-04-15T10:32:40.407Z,100646.19
2023-04-15T10:47:44.038Z,100650.84
2023-04-15T11:02:48.901Z,100647.88
2023-04-15T11:17:52.292Z,100648.63
2023-04-15T11:32:59.658Z,100642.38
2023-04-15T11:48:12.799Z,100659.56
2023-04-15T12:03:24.369Z,100657.13
2023-04-15T12:18:26.768Z,100638.69
2023-04-15T12:33:37.838Z,100634.75
2023-04-15T12:48:40.783Z,100623.34
2023-04-15T13:03:42.806Z,100631.81
2023-04-15T13:18:46.539Z,100651.88
2023-04-15T13:33:48.331Z,100668.28
2023-04-15T13:48:50.238Z,100662.59
2023-04-15T14:03:52.203Z,100694.34
2023-04-15T14:18:54.374Z,100692.53
2023-04-15T14:33:56.209Z,100709.09
2023-04-15T14:48:58.133Z,100685.09
2023-04-15T15:04:00.093Z,100714.75
2023-04-15T15:19:02.542Z,100720.38
2023-04-15T15:34:04.794Z,100713.16
2023-04-15T15:49:06.897Z,100726.34
2023-04-15T16:04:10.528Z,100721.50
2023-04-15T16:19:12.830Z,100732.75
2023-04-15T16:34:16.036Z,100768.88
2023-04-15T16:49:17.852Z,100765.59
2023-04-15T17:04:19.869Z,100791.25
2023-04-15T17:19:22.370Z,100817.72
2023-04-15T17:34:24.348Z,100830.97
2023-04-15T17:49:27.298Z,100844.94
2023-04-15T18:04:29.260Z,100862.06
2023-04-15T18:19:32.157Z,100857.41
2023-04-15T18:34:34.126Z,100866.81
2023-04-15T18:49:36.650Z,100873.34
2023-04-15T19:04:38.565Z,100883.41
2023-04-15T19:19:40.775Z,100891.56
2023-04-15T19:34:42.612Z,100903.97
2023-04-15T19:49:44.502Z,100918.34
2023-04-15T20:04:46.493Z,100915.59
2023-04-15T20:19:48.414Z,100900.25
2023-04-15T20:34:51.288Z,100895.53
2023-04-15T20:49:53.106Z,100896.72
2023-04-15T21:04:54.904Z,100913.78
2023-04-15T21:19:56.904Z,100928.88
2023-04-15T21:34:58.802Z,100925.44
2023-04-15T21:50:00.639Z,100929.69
2023-04-15T22:05:02.432Z,100927.38
2023-04-15T22:20:04.585Z,100914.63
2023-04-15T22:35:07.035Z,100923.53
2023-04-15T22:50:09.223Z,100950.25
2023-04-15T23:05:12.652Z,100912.69
2023-04-15T23:20:16.439Z,100932.06
2023-04-15T23:35:18.227Z,100942.88
2023-04-15T23:50:20.108Z,100951.41
